| time (UTC) | temp F | wind direction | speed MPH | gust MPH | rain 1hr in | rain 24hr in | rain mn in | humidity % | barometer mb |
| 20260905024213 | 76 | 55 | 1.0 | 3.0 | 0.00 | 0.46 | 0.46 | 95 | 1014.3 |
| 20260905023712 | 76 | 77 | 0.0 | 3.0 | 0.00 | 0.46 | 0.46 | 95 | 1014.3 |
| 20260905023212 | 76 | 77 | 0.0 | 1.0 | 0.00 | 0.46 | 0.46 | 95 | 1014.2 |
| 20260905022714 | 76 | 77 | 0.0 | 1.0 | 0.00 | 0.46 | 0.46 | 95 | 1014.1 |
| 20260905022710 | 76 | 77 | 1.0 | 1.0 | 0.00 | 0.46 | 0.46 | 95 | 1014.0 |
| 20260905021707 | 76 | 77 | 1.0 | 2.0 | 0.00 | 0.46 | 0.46 | 95 | 1014.1 |
| 20260905021207 | 76 | 77 | 0.0 | 2.0 | 0.00 | 0.46 | 0.46 | 95 | 1014.0 |
| 20260905020707 | 76 | 77 | 0.0 | 2.0 | 0.00 | 0.46 | 0.46 | 95 | 1013.9 |
| 20260905020207 | 76 | 77 | 0.0 | 0.0 | 0.00 | 0.46 | 0.46 | 95 | 1014.0 |
| 20260905015708 | 76 | 77 | 0.0 | 0.0 | 0.00 | 0.46 | 0.46 | 95 | 1013.9 |
| 20260905015207 | 76 | 77 | 0.0 | 0.0 | 0.00 | 0.46 | 0.46 | 94 | 1013.9 |
| 20260905014707 | 76 | 77 | 0.0 | 0.0 | 0.00 | 0.46 | 0.46 | 94 | 1013.8 |
| 20260905014439 | 76 | 77 | 0.0 | 0.0 | 0.00 | 0.46 | 0.46 | 94 | 1013.8 |
| 20260905013707 | 76 | 77 | 0.0 | 0.0 | 0.00 | 0.46 | 0.46 | 94 | 1013.9 |
| 20260905013205 | 76 | 77 | 0.0 | 0.0 | 0.00 | 0.46 | 0.46 | 94 | 1013.8 |
| 20260905012703 | 76 | 77 | 0.0 | 0.0 | 0.00 | 0.46 | 0.46 | 94 | 1013.8 |
| 20260905012204 | 76 | 77 | 0.0 | 0.0 | 0.00 | 0.46 | 0.46 | 94 | 1013.8 |
| 20260905011703 | 76 | 77 | 0.0 | 0.0 | 0.00 | 0.46 | 0.46 | 94 | 1013.9 |
| 20260905011203 | 76 | 77 | 0.0 | 0.0 | 0.00 | 0.46 | 0.46 | 94 | 1013.9 |
| 20260905010703 | 77 | 77 | 0.0 | 0.0 | 0.00 | 0.46 | 0.46 | 94 | 1013.8 |
| 20260905010203 | 77 | 77 | 0.0 | 0.0 | 0.00 | 0.46 | 0.46 | 94 | 1013.8 |
| 20260905005703 | 77 | 77 | 0.0 | 0.0 | 0.00 | 0.46 | 0.46 | 94 | 1013.8 |
| 20260905005203 | 77 | 77 | 0.0 | 0.0 | 0.00 | 0.46 | 0.46 | 94 | 1013.7 |
| 20260905004931 | 77 | 77 | 0.0 | 0.0 | 0.00 | 0.46 | 0.46 | 94 | 1013.6 |
| 20260905004202 | 77 | 77 | 0.0 | 0.0 | 0.00 | 0.46 | 0.46 | 93 | 1013.6 |
| 20260905003701 | 77 | 77 | 0.0 | 1.0 | 0.00 | 0.46 | 0.46 | 93 | 1013.6 |
| 20260905003432 | 77 | 77 | 0.0 | 1.0 | 0.00 | 0.46 | 0.46 | 93 | 1013.6 |
| 20260905002701 | 77 | 77 | 0.0 | 1.0 | 0.00 | 0.46 | 0.46 | 93 | 1013.6 |
| 20260905002202 | 77 | 77 | 0.0 | 1.0 | 0.00 | 0.46 | 0.46 | 93 | 1013.7 |
| 20260905001932 | 77 | 77 | 0.0 | 1.0 | 0.00 | 0.46 | 0.46 | 93 | 1013.8 |
| 20260905001202 | 78 | 77 | 0.0 | 1.0 | 0.00 | 0.46 | 0.46 | 92 | 1013.8 |
| 20260905000701 | 78 | 77 | 0.0 | 1.0 | 0.00 | 0.46 | 0.46 | 92 | 1013.6 |
| 20260905000432 | 78 | 77 | 1.0 | 1.0 | 0.00 | 0.46 | 0.46 | 91 | 1013.7 |
| 20260904235657 | 78 | 77 | 0.0 | 1.0 | 0.00 | 0.46 | 0.46 | 91 | 1013.6 |
| 20260904235158 | 78 | 77 | 0.0 | 1.0 | 0.00 | 0.46 | 0.46 | 91 | 1013.6 |
| 20260904234657 | 78 | 77 | 1.0 | 2.0 | 0.00 | 0.46 | 0.46 | 90 | 1013.6 |
| 20260904234429 | 78 | 77 | 1.0 | 2.0 | 0.00 | 0.46 | 0.46 | 90 | 1013.6 |
| 20260904233658 | 78 | 77 | 1.0 | 2.0 | 0.00 | 0.46 | 0.46 | 90 | 1013.6 |
| 20260904233157 | 78 | 80 | 0.0 | 2.0 | 0.00 | 0.46 | 0.46 | 90 | 1013.5 |
| 20260904232657 | 78 | 80 | 1.0 | 2.0 | 0.00 | 0.46 | 0.46 | 90 | 1013.5 |
| 20260904232157 | 78 | 80 | 1.0 | 2.0 | 0.00 | 0.46 | 0.46 | 90 | 1013.5 |
| 20260904231657 | 78 | 17 | 1.0 | 2.0 | 0.00 | 0.46 | 0.46 | 91 | 1013.5 |
| 20260904231157 | 79 | 338 | 0.0 | 2.0 | 0.00 | 0.46 | 0.46 | 91 | 1013.5 |
| 20260904230657 | 79 | 82 | 0.0 | 1.0 | 0.00 | 0.46 | 0.46 | 91 | 1013.6 |
| 20260904230157 | 79 | 82 | 0.0 | 2.0 | 0.00 | 0.46 | 0.46 | 91 | 1013.5 |
| 20260904225927 | 79 | 82 | 1.0 | 2.0 | 0.00 | 0.46 | 0.46 | 91 | 1013.5 |
| 20260904225157 | 79 | 82 | 1.0 | 2.0 | 0.00 | 0.46 | 0.46 | 90 | 1013.6 |
| 20260904224929 | 79 | 82 | 1.0 | 4.0 | 0.00 | 0.46 | 0.46 | 91 | 1013.5 |
| 20260904224157 | 79 | 81 | 1.0 | 4.0 | 0.00 | 0.46 | 0.46 | 91 | 1013.5 |
| 20260904223658 | 79 | 78 | 1.0 | 3.0 | 0.00 | 0.46 | 0.46 | 91 | 1013.4 |
| 20260904223157 | 79 | 76 | 1.0 | 3.0 | 0.00 | 0.46 | 0.46 | 91 | 1013.3 |
| 20260904222928 | 79 | 44 | 1.0 | 3.0 | 0.00 | 0.46 | 0.46 | 91 | 1013.3 |
| 20260904222155 | 79 | 53 | 2.0 | 4.0 | 0.00 | 0.46 | 0.46 | 91 | 1013.3 |
| 20260904221656 | 79 | 78 | 2.0 | 4.0 | 0.01 | 0.46 | 0.46 | 91 | 1013.2 |
| 20260904221424 | 79 | 38 | 2.0 | 4.0 | 0.06 | 0.46 | 0.46 | 91 | 1013.2 |
| 20260904220653 | 79 | 65 | 2.0 | 4.0 | 0.15 | 0.46 | 0.46 | 91 | 1013.1 |
| 20260904220424 | 80 | 88 | 2.0 | 4.0 | 0.19 | 0.46 | 0.46 | 91 | 1013.1 |
| 20260904215653 | 80 | 46 | 1.0 | 4.0 | 0.26 | 0.46 | 0.46 | 92 | 1013.1 |
| 20260904215153 | 80 | 18 | 1.0 | 4.0 | 0.28 | 0.46 | 0.46 | 92 | 1013.1 |
| 20260904214924 | 80 | 358 | 1.0 | 3.0 | 0.29 | 0.46 | 0.46 | 92 | 1013.2 |
| 20260904214153 | 80 | 79 | 1.0 | 2.0 | 0.29 | 0.46 | 0.46 | 92 | 1013.3 |
| 20260904213653 | 80 | 37 | 1.0 | 3.0 | 0.29 | 0.46 | 0.46 | 92 | 1013.3 |
| 20260904213151 | 80 | 79 | 1.0 | 3.0 | 0.30 | 0.46 | 0.46 | 92 | 1013.1 |
| 20260904212651 | 79 | 80 | 1.0 | 3.0 | 0.30 | 0.46 | 0.46 | 92 | 1012.9 |
| 20260904212151 | 79 | 80 | 2.0 | 5.0 | 0.30 | 0.46 | 0.46 | 92 | 1012.9 |
| 20260904211651 | 79 | 76 | 2.0 | 5.0 | 0.29 | 0.45 | 0.46 | 91 | 1013.1 |
| 20260904211151 | 79 | 66 | 2.0 | 4.0 | 0.24 | 0.40 | 0.42 | 90 | 1013.3 |
| 20260904210651 | 80 | 108 | 2.0 | 4.0 | 0.15 | 0.31 | 0.31 | 90 | 1013.3 |
| 20260904210151 | 80 | 74 | 2.0 | 8.0 | 0.11 | 0.27 | 0.27 | 89 | 1013.3 |
| 20260904205651 | 80 | 79 | 3.0 | 8.0 | 0.04 | 0.20 | 0.21 | 89 | 1013.5 |
| 20260904205151 | 81 | 63 | 3.0 | 7.0 | 0.02 | 0.18 | 0.18 | 88 | 1013.5 |
| 20260904204651 | 82 | 53 | 3.0 | 7.0 | 0.01 | 0.17 | 0.17 | 85 | 1013.3 |
| 20260904204152 | 83 | 32 | 3.0 | 6.0 | 0.01 | 0.17 | 0.17 | 83 | 1013.5 |
| 20260904203651 | 84 | 41 | 3.0 | 8.0 | 0.01 | 0.17 | 0.17 | 80 | 1013.2 |
| 20260904203151 | 85 | 32 | 3.0 | 8.0 | 0.00 | 0.16 | 0.16 | 79 | 1013.1 |
| 20260904202651 | 85 | 356 | 1.0 | 4.0 | 0.00 | 0.16 | 0.16 | 79 | 1013.1 |
| 20260904202151 | 84 | 228 | 1.0 | 3.0 | 0.00 | 0.16 | 0.16 | 79 | 1013.2 |
| 20260904201651 | 84 | 237 | 1.0 | 3.0 | 0.00 | 0.16 | 0.16 | 78 | 1013.2 |
| 20260904201151 | 85 | 27 | 1.0 | 4.0 | 0.00 | 0.16 | 0.16 | 78 | 1013.3 |
| 20260904200923 | 85 | 309 | 2.0 | 8.0 | 0.00 | 0.16 | 0.16 | 78 | 1013.3 |
| 20260904200155 | 85 | 252 | 1.0 | 7.0 | 0.00 | 0.16 | 0.16 | 82 | 1013.3 |
| 20260904200150 | 85 | 240 | 2.0 | 8.0 | 0.00 | 0.16 | 0.16 | 80 | 1013.3 |
| 20260904195156 | 85 | 227 | 2.0 | 7.0 | 0.00 | 0.16 | 0.16 | 83 | 1013.5 |
| 20260904194651 | 85 | 243 | 2.0 | 7.0 | 0.00 | 0.16 | 0.16 | 82 | 1013.6 |
| 20260904194423 | 87 | 331 | 2.0 | 6.0 | 0.00 | 0.16 | 0.16 | 80 | 1013.5 |
| 20260904193651 | 87 | 188 | 2.0 | 5.0 | 0.00 | 0.16 | 0.16 | 80 | 1013.5 |
| 20260904193152 | 87 | 200 | 2.0 | 5.0 | 0.00 | 0.16 | 0.16 | 79 | 1013.5 |
| 20260904192651 | 87 | 184 | 2.0 | 8.0 | 0.00 | 0.16 | 0.16 | 79 | 1013.6 |
| 20260904192151 | 88 | 304 | 2.0 | 8.0 | 0.00 | 0.16 | 0.16 | 78 | 1013.8 |
| 20260904191651 | 88 | 248 | 2.0 | 6.0 | 0.00 | 0.16 | 0.16 | 79 | 1013.8 |
| 20260904191421 | 88 | 252 | 2.0 | 8.0 | 0.00 | 0.16 | 0.16 | 76 | 1013.7 |
| 20260904191254 | 89 | 94 | 2.0 | 8.0 | 0.00 | 0.16 | 0.16 | 82 | 1013.8 |
| 20260904190149 | 88 | 210 | 1.0 | 8.0 | 0.00 | 0.16 | 0.16 | 79 | 1013.9 |
| 20260904185649 | 88 | 318 | 1.0 | 5.0 | 0.00 | 0.16 | 0.16 | 79 | 1013.8 |
| 20260904185421 | 87 | 297 | 1.0 | 5.0 | 0.01 | 0.16 | 0.16 | 80 | 1013.9 |
| 20260904184920 | 88 | 237 | 1.0 | 4.0 | 0.02 | 0.16 | 0.16 | 82 | 1014.0 |
| 20260904184148 | 86 | 181 | 2.0 | 5.0 | 0.04 | 0.16 | 0.16 | 82 | 1014.0 |
| 20260904183647 | 86 | 286 | 1.0 | 5.0 | 0.04 | 0.16 | 0.16 | 84 | 1014.0 |
| 20260904183418 | 86 | 257 | 1.0 | 3.0 | 0.05 | 0.16 | 0.16 | 86 | 1014.1 |
| 20260904182647 | 85 | 203 | 1.0 | 2.0 | 0.05 | 0.16 | 0.16 | 89 | 1014.1 |
| 20260904182418 | 84 | 233 | 0.0 | 2.0 | 0.05 | 0.16 | 0.16 | 87 | 1014.1 |
| 20260904181919 | 84 | 255 | 0.0 | 2.0 | 0.05 | 0.16 | 0.16 | 89 | 1014.4 |
| 20260904181147 | 84 | 215 | 0.0 | 3.0 | 0.05 | 0.16 | 0.16 | 89 | 1014.6 |
| 20260904180918 | 83 | 213 | 0.0 | 3.0 | 0.05 | 0.16 | 0.16 | 88 | 1014.6 |
| 20260904180147 | 83 | 208 | 1.0 | 3.0 | 0.05 | 0.16 | 0.16 | 87 | 1014.7 |
| 20260904175648 | 84 | 199 | 0.0 | 3.0 | 0.05 | 0.16 | 0.16 | 85 | 1014.6 |
| 20260904175417 | 85 | 211 | 0.0 | 2.0 | 0.04 | 0.15 | 0.15 | 84 | 1014.7 |
| 20260904174918 | 85 | 211 | 0.0 | 3.0 | 0.03 | 0.14 | 0.14 | 82 | 1014.8 |
| 20260904174147 | 86 | 211 | 1.0 | 6.0 | 0.01 | 0.12 | 0.13 | 80 | 1014.8 |
| 20260904173647 | 86 | 94 | 2.0 | 6.0 | 0.01 | 0.12 | 0.12 | 78 | 1014.8 |
| 20260904173147 | 87 | 60 | 2.0 | 5.0 | 0.00 | 0.11 | 0.11 | 76 | 1014.8 |
| 20260904172647 | 87 | 56 | 2.0 | 5.0 | 0.00 | 0.11 | 0.11 | 75 | 1014.8 |
| 20260904172417 | 88 | 117 | 2.0 | 6.0 | 0.00 | 0.11 | 0.11 | 73 | 1014.8 |
| 20260904171647 | 88 | 86 | 3.0 | 6.0 | 0.00 | 0.11 | 0.11 | 73 | 1014.8 |
| 20260904171147 | 89 | 71 | 3.0 | 7.0 | 0.00 | 0.11 | 0.11 | 71 | 1014.7 |
| 20260904170645 | 90 | 68 | 2.0 | 7.0 | 0.00 | 0.11 | 0.11 | 73 | 1014.7 |
| 20260904170145 | 90 | 257 | 3.0 | 7.0 | 0.00 | 0.11 | 0.11 | 72 | 1014.7 |
| 20260904165645 | 89 | 55 | 3.0 | 6.0 | 0.00 | 0.11 | 0.11 | 73 | 1014.9 |
| 20260904165146 | 89 | 113 | 2.0 | 6.0 | 0.00 | 0.11 | 0.11 | 71 | 1015.1 |
| 20260904164645 | 89 | 96 | 3.0 | 6.0 | 0.00 | 0.11 | 0.11 | 72 | 1015.1 |
| 20260904164146 | 89 | 70 | 2.0 | 6.0 | 0.00 | 0.11 | 0.11 | 72 | 1015.3 |
| 20260904163645 | 88 | 88 | 2.0 | 5.0 | 0.00 | 0.11 | 0.11 | 75 | 1015.3 |
| 20260904163150 | 87 | 125 | 2.0 | 5.0 | 0.00 | 0.11 | 0.11 | 75 | 1015.5 |
| 20260904162646 | 87 | 106 | 2.0 | 7.0 | 0.00 | 0.11 | 0.11 | 76 | 1015.5 |
| 20260904162145 | 87 | 62 | 2.0 | 6.0 | 0.00 | 0.11 | 0.11 | 76 | 1015.5 |
| 20260904161643 | 87 | 63 | 3.0 | 7.0 | 0.00 | 0.11 | 0.11 | 75 | 1015.5 |
| 20260904161414 | 87 | 69 | 3.0 | 7.0 | 0.00 | 0.11 | 0.11 | 75 | 1015.6 |
| 20260904160644 | 87 | 113 | 2.0 | 5.0 | 0.00 | 0.11 | 0.11 | 75 | 1015.6 |
| 20260904160143 | 86 | 116 | 2.0 | 5.0 | 0.00 | 0.11 | 0.11 | 77 | 1015.6 |
| 20260904155647 | 86 | 101 | 2.0 | 7.0 | 0.00 | 0.11 | 0.11 | 77 | 1015.6 |
| 20260904155643 | 86 | 98 | 2.0 | 7.0 | 0.00 | 0.11 | 0.11 | 78 | 1015.6 |
| 20260904154643 | 86 | 94 | 2.0 | 6.0 | 0.00 | 0.11 | 0.11 | 78 | 1015.7 |
| 20260904154142 | 86 | 49 | 2.0 | 5.0 | 0.00 | 0.11 | 0.11 | 79 | 1015.7 |
| 20260904153644 | 86 | 82 | 2.0 | 5.0 | 0.00 | 0.11 | 0.11 | 80 | 1015.7 |
| 20260904153413 | 86 | 76 | 2.0 | 5.0 | 0.00 | 0.11 | 0.11 | 79 | 1015.8 |
| 20260904152641 | 85 | 351 | 2.0 | 4.0 | 0.00 | 0.11 | 0.11 | 81 | 1015.7 |
| 20260904152141 | 85 | 44 | 2.0 | 5.0 | 0.00 | 0.11 | 0.11 | 84 | 1015.7 |
| 20260904151641 | 84 | 51 | 3.0 | 6.0 | 0.00 | 0.11 | 0.11 | 83 | 1015.6 |
| 20260904151141 | 84 | 60 | 2.0 | 6.0 | 0.00 | 0.11 | 0.11 | 84 | 1015.5 |
| 20260904150641 | 83 | 0 | 2.0 | 5.0 | 0.00 | 0.11 | 0.11 | 86 | 1015.5 |
| 20260904150413 | 83 | 91 | 1.0 | 4.0 | 0.00 | 0.11 | 0.11 | 87 | 1015.5 |
| 20260904145641 | 83 | 80 | 2.0 | 3.0 | 0.00 | 0.11 | 0.11 | 87 | 1015.4 |
| 20260904145141 | 83 | 7 | 2.0 | 4.0 | 0.00 | 0.11 | 0.11 | 87 | 1015.4 |
| 20260904144641 | 82 | 75 | 2.0 | 4.0 | 0.00 | 0.11 | 0.11 | 88 | 1015.5 |
| 20260904144140 | 82 | 346 | 1.0 | 3.0 | 0.00 | 0.11 | 0.11 | 89 | 1015.4 |
| 20260904143639 | 82 | 71 | 2.0 | 3.0 | 0.00 | 0.11 | 0.11 | 89 | 1015.4 |
| 20260904143139 | 82 | 97 | 2.0 | 4.0 | 0.00 | 0.11 | 0.11 | 88 | 1015.4 |
| 20260904142639 | 82 | 51 | 1.0 | 4.0 | 0.00 | 0.11 | 0.11 | 88 | 1015.3 |
| 20260904142139 | 82 | 73 | 1.0 | 2.0 | 0.00 | 0.11 | 0.11 | 89 | 1015.4 |
| 20260904141639 | 82 | 100 | 1.0 | 2.0 | 0.00 | 0.11 | 0.11 | 89 | 1015.5 |
| 20260904141138 | 82 | 56 | 1.0 | 2.0 | 0.00 | 0.11 | 0.11 | 89 | 1015.4 |
| 20260904140909 | 81 | 86 | 0.0 | 2.0 | 0.00 | 0.11 | 0.11 | 90 | 1015.4 |
| 20260904140139 | 81 | 99 | 0.0 | 1.0 | 0.00 | 0.11 | 0.11 | 90 | 1015.3 |
| 20260904135639 | 81 | 99 | 0.0 | 0.0 | 0.00 | 0.11 | 0.11 | 91 | 1015.3 |
| 20260904135139 | 80 | 99 | 0.0 | 1.0 | 0.00 | 0.11 | 0.11 | 91 | 1015.3 |
| 20260904134637 | 80 | 99 | 0.0 | 2.0 | 0.00 | 0.11 | 0.11 | 91 | 1015.3 |
| 20260904134137 | 80 | 99 | 0.0 | 2.0 | 0.00 | 0.11 | 0.11 | 91 | 1015.2 |
| 20260904133908 | 80 | 99 | 0.0 | 1.0 | 0.00 | 0.11 | 0.11 | 92 | 1015.2 |
| 20260904133137 | 80 | 99 | 0.0 | 1.0 | 0.00 | 0.11 | 0.11 | 93 | 1015.2 |
| 20260904132907 | 79 | 99 | 0.0 | 1.0 | 0.00 | 0.11 | 0.11 | 94 | 1015.2 |
| 20260904132136 | 79 | 99 | 0.0 | 1.0 | 0.00 | 0.11 | 0.11 | 94 | 1015.1 |
| 20260904131637 | 79 | 105 | 0.0 | 1.0 | 0.00 | 0.11 | 0.11 | 95 | 1015.1 |
| 20260904131138 | 78 | 105 | 0.0 | 1.0 | 0.00 | 0.11 | 0.11 | 95 | 1015.0 |
| 20260904130637 | 78 | 105 | 0.0 | 2.0 | 0.00 | 0.11 | 0.11 | 95 | 1014.8 |
| 20260904130137 | 78 | 105 | 0.0 | 2.0 | 0.00 | 0.11 | 0.11 | 95 | 1014.8 |
| 20260904125634 | 78 | 100 | 0.0 | 1.0 | 0.00 | 0.11 | 0.11 | 95 | 1014.7 |
| 20260904125135 | 78 | 100 | 0.0 | 1.0 | 0.00 | 0.11 | 0.11 | 95 | 1014.6 |
| 20260904124635 | 77 | 100 | 0.0 | 1.0 | 0.00 | 0.11 | 0.11 | 95 | 1014.6 |
| 20260904124135 | 77 | 100 | 0.0 | 1.0 | 0.00 | 0.11 | 0.11 | 95 | 1014.6 |
| 20260904123635 | 77 | 100 | 0.0 | 1.0 | 0.00 | 0.11 | 0.11 | 95 | 1014.5 |
| 20260904123135 | 77 | 100 | 0.0 | 1.0 | 0.00 | 0.11 | 0.11 | 95 | 1014.4 |
| 20260904122634 | 77 | 100 | 0.0 | 1.0 | 0.00 | 0.11 | 0.11 | 95 | 1014.4 |
| 20260904122135 | 77 | 100 | 0.0 | 0.0 | 0.00 | 0.11 | 0.11 | 95 | 1014.4 |
| 20260904121633 | 77 | 100 | 0.0 | 0.0 | 0.00 | 0.11 | 0.11 | 95 | 1014.3 |
| 20260904121133 | 76 | 100 | 0.0 | 0.0 | 0.00 | 0.11 | 0.11 | 95 | 1014.4 |
| 20260904120633 | 76 | 100 | 0.0 | 0.0 | 0.00 | 0.11 | 0.11 | 95 | 1014.3 |
| 20260904120133 | 76 | 100 | 0.0 | 0.0 | 0.00 | 0.11 | 0.11 | 95 | 1014.4 |
| 20260904115909 | 76 | 100 | 0.0 | 0.0 | 0.00 | 0.11 | 0.11 | 95 | 1014.4 |
| 20260904115633 | 76 | 100 | 0.0 | 0.0 | 0.00 | 0.11 | 0.11 | 95 | 1014.4 |
| 20260904114633 | 76 | 100 | 0.0 | 0.0 | 0.00 | 0.11 | 0.11 | 95 | 1014.4 |
| 20260904114133 | 76 | 100 | 0.0 | 0.0 | 0.00 | 0.11 | 0.11 | 95 | 1014.3 |
| 20260904113633 | 76 | 100 | 0.0 | 0.0 | 0.00 | 0.11 | 0.11 | 95 | 1014.2 |
| 20260904113132 | 76 | 100 | 0.0 | 0.0 | 0.00 | 0.11 | 0.11 | 95 | 1014.2 |
| 20260904112901 | 76 | 100 | 0.0 | 0.0 | 0.00 | 0.11 | 0.11 | 95 | 1014.3 |
| 20260904112130 | 76 | 100 | 0.0 | 0.0 | 0.00 | 0.11 | 0.11 | 95 | 1014.2 |
| 20260904111902 | 76 | 100 | 0.0 | 0.0 | 0.00 | 0.11 | 0.11 | 95 | 1014.3 |
| 20260904111131 | 76 | 100 | 0.0 | 0.0 | 0.00 | 0.11 | 0.11 | 95 | 1014.3 |
| 20260904110630 | 76 | 100 | 0.0 | 0.0 | 0.00 | 0.11 | 0.11 | 95 | 1014.3 |
| 20260904110129 | 76 | 100 | 0.0 | 0.0 | 0.00 | 0.11 | 0.11 | 95 | 1014.3 |
| 20260904105629 | 76 | 100 | 0.0 | 0.0 | 0.00 | 0.11 | 0.11 | 95 | 1014.3 |
| 20260904105129 | 76 | 100 | 0.0 | 0.0 | 0.00 | 0.11 | 0.11 | 95 | 1014.1 |
| 20260904104629 | 76 | 100 | 0.0 | 0.0 | 0.00 | 0.11 | 0.11 | 95 | 1014.1 |
| 20260904104129 | 76 | 100 | 0.0 | 0.0 | 0.00 | 0.11 | 0.11 | 95 | 1014.1 |
| 20260904103858 | 76 | 100 | 0.0 | 0.0 | 0.00 | 0.11 | 0.11 | 95 | 1014.0 |
| 20260904103128 | 76 | 100 | 0.0 | 0.0 | 0.00 | 0.11 | 0.11 | 95 | 1013.9 |
| 20260904102627 | 76 | 100 | 0.0 | 0.0 | 0.00 | 0.11 | 0.11 | 95 | 1013.9 |
| 20260904102127 | 76 | 100 | 0.0 | 0.0 | 0.00 | 0.11 | 0.11 | 95 | 1013.9 |
| 20260904101627 | 76 | 100 | 0.0 | 0.0 | 0.00 | 0.11 | 0.11 | 95 | 1013.8 |
| 20260904101357 | 76 | 100 | 0.0 | 0.0 | 0.00 | 0.11 | 0.11 | 95 | 1013.7 |
| 20260904100627 | 76 | 100 | 0.0 | 0.0 | 0.00 | 0.11 | 0.11 | 95 | 1013.7 |
| 20260904100127 | 76 | 100 | 0.0 | 0.0 | 0.00 | 0.11 | 0.11 | 95 | 1013.7 |
| 20260904095627 | 76 | 100 | 0.0 | 1.0 | 0.00 | 0.11 | 0.11 | 95 | 1013.7 |
| 20260904095125 | 76 | 100 | 0.0 | 1.0 | 0.00 | 0.11 | 0.11 | 95 | 1013.7 |
| 20260904094622 | 76 | 100 | 0.0 | 1.0 | 0.00 | 0.11 | 0.11 | 95 | 1013.6 |
| 20260904094353 | 77 | 100 | 0.0 | 1.0 | 0.00 | 0.11 | 0.11 | 95 | 1013.7 |
| 20260904093623 | 77 | 100 | 0.0 | 1.0 | 0.00 | 0.11 | 0.11 | 95 | 1013.5 |
| 20260904093123 | 77 | 100 | 0.0 | 1.0 | 0.00 | 0.11 | 0.11 | 95 | 1013.6 |
| 20260904092623 | 76 | 100 | 0.0 | 1.0 | 0.00 | 0.11 | 0.11 | 95 | 1013.5 |
| 20260904092123 | 77 | 100 | 0.0 | 0.0 | 0.00 | 0.11 | 0.11 | 95 | 1013.5 |
| 20260904091623 | 77 | 100 | 0.0 | 0.0 | 0.00 | 0.11 | 0.11 | 95 | 1013.6 |
| 20260904091355 | 77 | 100 | 0.0 | 0.0 | 0.00 | 0.11 | 0.11 | 95 | 1013.6 |
| 20260904090623 | 77 | 100 | 0.0 | 1.0 | 0.00 | 0.11 | 0.11 | 95 | 1013.6 |
| 20260904090123 | 77 | 100 | 0.0 | 1.0 | 0.00 | 0.11 | 0.11 | 95 | 1013.6 |
| 20260904085621 | 77 | 100 | 0.0 | 1.0 | 0.00 | 0.11 | 0.11 | 95 | 1013.6 |
| 20260904085121 | 77 | 100 | 0.0 | 1.0 | 0.00 | 0.11 | 0.11 | 95 | 1013.5 |
| 20260904084621 | 77 | 100 | 0.0 | 0.0 | 0.00 | 0.11 | 0.11 | 95 | 1013.5 |
| 20260904084121 | 77 | 100 | 0.0 | 0.0 | 0.00 | 0.11 | 0.11 | 95 | 1013.5 |
| 20260904083621 | 77 | 100 | 0.0 | 0.0 | 0.00 | 0.11 | 0.11 | 95 | 1013.5 |
| 20260904083121 | 77 | 100 | 0.0 | 0.0 | 0.00 | 0.11 | 0.11 | 95 | 1013.5 |
| 20260904082621 | 77 | 100 | 0.0 | 1.0 | 0.00 | 0.11 | 0.11 | 95 | 1013.4 |
| 20260904082351 | 77 | 100 | 0.0 | 1.0 | 0.00 | 0.11 | 0.11 | 95 | 1013.5 |
| 20260904081852 | 77 | 100 | 0.0 | 1.0 | 0.00 | 0.11 | 0.11 | 95 | 1013.5 |
| 20260904081120 | 77 | 100 | 0.0 | 1.0 | 0.00 | 0.11 | 0.11 | 95 | 1013.5 |
| 20260904080619 | 77 | 100 | 0.0 | 1.0 | 0.00 | 0.11 | 0.11 | 95 | 1013.5 |
| 20260904080119 | 78 | 100 | 0.0 | 1.0 | 0.00 | 0.11 | 0.11 | 95 | 1013.6 |
| 20260904075619 | 77 | 100 | 0.0 | 0.0 | 0.00 | 0.11 | 0.11 | 95 | 1013.7 |
| 20260904075119 | 77 | 100 | 0.0 | 0.0 | 0.00 | 0.11 | 0.11 | 95 | 1013.7 |
| 20260904074618 | 77 | 100 | 0.0 | 0.0 | 0.00 | 0.11 | 0.11 | 95 | 1013.8 |
| 20260904074117 | 77 | 100 | 0.0 | 1.0 | 0.00 | 0.11 | 0.11 | 95 | 1013.7 |
| 20260904073849 | 77 | 100 | 0.0 | 1.0 | 0.00 | 0.11 | 0.11 | 95 | 1013.8 |
| 20260904073117 | 77 | 100 | 0.0 | 0.0 | 0.00 | 0.11 | 0.11 | 94 | 1013.8 |
| 20260904072848 | 77 | 100 | 0.0 | 0.0 | 0.00 | 0.11 | 0.11 | 94 | 1013.7 |
| 20260904072117 | 77 | 100 | 0.0 | 0.0 | 0.00 | 0.11 | 0.11 | 94 | 1013.8 |
| 20260904071615 | 77 | 100 | 0.0 | 0.0 | 0.00 | 0.11 | 0.11 | 94 | 1013.7 |
| 20260904071115 | 77 | 100 | 0.0 | 0.0 | 0.00 | 0.11 | 0.11 | 94 | 1013.7 |
| 20260904070614 | 77 | 100 | 0.0 | 0.0 | 0.00 | 0.11 | 0.11 | 94 | 1013.8 |
| 20260904070345 | 78 | 100 | 0.0 | 0.0 | 0.00 | 0.11 | 0.11 | 94 | 1013.7 |
| 20260904065614 | 78 | 100 | 0.0 | 0.0 | 0.01 | 0.11 | 0.11 | 94 | 1013.8 |
| 20260904065115 | 78 | 100 | 0.0 | 0.0 | 0.03 | 0.11 | 0.11 | 94 | 1013.8 |
| 20260904064615 | 78 | 100 | 0.0 | 0.0 | 0.04 | 0.11 | 0.11 | 94 | 1013.9 |
| 20260904064119 | 78 | 100 | 0.0 | 0.0 | 0.07 | 0.11 | 0.11 | 94 | 1014.0 |
| 20260904064115 | 78 | 100 | 0.0 | 0.0 | 0.05 | 0.11 | 0.11 | 94 | 1013.9 |
| 20260904063113 | 78 | 100 | 0.0 | 0.0 | 0.08 | 0.11 | 0.11 | 93 | 1013.9 |
| 20260904062611 | 78 | 100 | 0.0 | 0.0 | 0.09 | 0.11 | 0.11 | 93 | 1013.9 |
| 20260904062110 | 78 | 100 | 0.0 | 0.0 | 0.09 | 0.11 | 0.11 | 93 | 1013.9 |
| 20260904061610 | 78 | 100 | 0.0 | 0.0 | 0.10 | 0.11 | 0.11 | 93 | 1013.9 |
| 20260904061111 | 78 | 100 | 0.0 | 1.0 | 0.10 | 0.11 | 0.11 | 93 | 1013.8 |
| 20260904060842 | 78 | 100 | 0.0 | 1.0 | 0.11 | 0.11 | 0.11 | 93 | 1014.0 |
| 20260904060111 | 79 | 100 | 0.0 | 1.0 | 0.11 | 0.11 | 0.11 | 92 | 1014.1 |
| 20260904055611 | 79 | 100 | 0.0 | 1.0 | 0.10 | 0.10 | 0.10 | 92 | 1014.3 |
| 20260904055111 | 79 | 100 | 0.0 | 1.0 | 0.08 | 0.08 | 0.09 | 92 | 1014.4 |
| 20260904054612 | 79 | 100 | 1.0 | 2.0 | 0.07 | 0.07 | 0.07 | 92 | 1014.4 |
| 20260904054111 | 79 | 100 | 1.0 | 2.0 | 0.06 | 0.06 | 0.06 | 91 | 1014.5 |
| 20260904053610 | 79 | 78 | 0.0 | 3.0 | 0.04 | 0.04 | 0.05 | 91 | 1014.5 |
| 20260904053111 | 79 | 91 | 1.0 | 3.0 | 0.03 | 0.03 | 0.04 | 91 | 1014.6 |
| 20260904052608 | 80 | 101 | 1.0 | 2.0 | 0.02 | 0.02 | 0.02 | 90 | 1014.7 |
| 20260904052110 | 80 | 82 | 1.0 | 2.0 | 0.02 | 0.02 | 0.02 | 90 | 1014.7 |
| 20260904051609 | 80 | 91 | 0.0 | 2.0 | 0.01 | 0.01 | 0.01 | 89 | 1014.8 |
| 20260904051108 | 80 | 113 | 0.0 | 2.0 | 0.01 | 0.01 | 0.01 | 89 | 1014.9 |
| 20260904050609 | 80 | 113 | 1.0 | 2.0 | 0.00 | 0.00 | 0.00 | 89 | 1014.9 |
| 20260904050109 | 80 | 105 | 0.0 | 2.0 | 0.00 | 0.00 | 0.00 | 90 | 1014.8 |
| 20260904045609 | 80 | 105 | 0.0 | 2.0 | 0.00 | 0.00 | 0.00 | 90 | 1014.6 |
| 20260904045110 | 80 | 109 | 0.0 | 2.0 | 0.00 | 0.00 | 0.00 | 91 | 1014.6 |
| 20260904044609 | 79 | 109 | 0.0 | 2.0 | 0.00 | 0.00 | 0.00 | 92 | 1014.5 |
| 20260904044109 | 79 | 109 | 1.0 | 2.0 | 0.00 | 0.00 | 0.00 | 91 | 1014.4 |
| 20260904043608 | 79 | 109 | 0.0 | 1.0 | 0.00 | 0.00 | 0.00 | 92 | 1014.5 |
| 20260904043337 | 79 | 109 | 0.0 | 0.0 | 0.00 | 0.00 | 0.00 | 91 | 1014.4 |
| 20260904042837 | 79 | 109 | 0.0 | 0.0 | 0.00 | 0.00 | 0.00 | 91 | 1014.3 |
| 20260904042339 | 79 | 109 | 0.0 | 1.0 | 0.00 | 0.00 | 0.00 | 91 | 1014.4 |
| 20260904041607 | 79 | 109 | 0.0 | 1.0 | 0.00 | 0.00 | 0.00 | 91 | 1014.3 |
| 20260904041107 | 79 | 109 | 0.0 | 0.0 | 0.00 | 0.00 | 0.00 | 91 | 1014.3 |
| 20260904040607 | 78 | 109 | 0.0 | 0.0 | 0.00 | 0.00 | 0.00 | 91 | 1014.2 |
| 20260904040107 | 79 | 109 | 0.0 | 0.0 | 0.00 | 0.00 | 0.00 | 90 | 1014.2 |
| 20260904035607 | 79 | 109 | 0.0 | 0.0 | 0.00 | 0.00 | 0.00 | 91 | 1014.3 |
| 20260904035107 | 79 | 109 | 0.0 | 0.0 | 0.00 | 0.00 | 0.00 | 91 | 1014.3 |
| 20260904034607 | 79 | 109 | 0.0 | 0.0 | 0.00 | 0.00 | 0.00 | 91 | 1014.3 |
| 20260904034105 | 79 | 109 | 0.0 | 0.0 | 0.00 | 0.00 | 0.00 | 90 | 1014.4 |
| 20260904033605 | 79 | 109 | 0.0 | 0.0 | 0.00 | 0.00 | 0.00 | 90 | 1014.3 |
| 20260904033105 | 79 | 109 | 0.0 | 0.0 | 0.00 | 0.00 | 0.00 | 90 | 1014.4 |
| 20260904032835 | 79 | 109 | 0.0 | 0.0 | 0.00 | 0.00 | 0.00 | 90 | 1014.5 |
| 20260904032336 | 79 | 109 | 0.0 | 0.0 | 0.00 | 0.00 | 0.00 | 89 | 1014.6 |
| 20260904031605 | 79 | 109 | 0.0 | 0.0 | 0.00 | 0.00 | 0.00 | 89 | 1014.6 |
| 20260904031105 | 80 | 109 | 0.0 | 0.0 | 0.00 | 0.00 | 0.00 | 88 | 1014.7 |
| 20260904030605 | 80 | 109 | 0.0 | 0.0 | 0.00 | 0.00 | 0.00 | 88 | 1014.7 |
| 20260904030335 | 80 | 109 | 0.0 | 0.0 | 0.00 | 0.00 | 0.00 | 88 | 1014.6 |
| 20260904025605 | 80 | 109 | 0.0 | 0.0 | 0.00 | 0.00 | 0.00 | 87 | 1014.7 |
| 20260904025103 | 80 | 109 | 0.0 | 0.0 | 0.00 | 0.00 | 0.00 | 87 | 1014.8 |
| 20260904024834 | 81 | 109 | 0.0 | 0.0 | 0.00 | 0.00 | 0.00 | 86 | 1014.8 |